sensor_id;sensor_type;location;lat;lon;timestamp;pressure;altitude;pressure_sealevel;temperature;humidity
44349;BME280;30068;50.986;4.564;2022-12-07T00:00:55;101993.94;;;14.63;66.83
44349;BME280;30068;50.986;4.564;2022-12-07T00:03:28;101989.78;;;14.48;67.29
44349;BME280;30068;50.986;4.564;2022-12-07T00:05:56;101993.81;;;14.43;67.60
44349;BME280;30068;50.986;4.564;2022-12-07T00:08:22;101989.91;;;14.58;66.91
44349;BME280;30068;50.986;4.564;2022-12-07T00:10:47;101987.97;;;14.60;66.89
44349;BME280;30068;50.986;4.564;2022-12-07T00:13:12;101980.53;;;14.52;67.01
44349;BME280;30068;50.986;4.564;2022-12-07T00:15:37;101977.22;;;14.38;67.50
44349;BME280;30068;50.986;4.564;2022-12-07T00:18:02;101979.91;;;14.49;67.32
44349;BME280;30068;50.986;4.564;2022-12-07T00:20:28;101976.84;;;14.42;67.50
44349;BME280;30068;50.986;4.564;2022-12-07T00:22:53;101978.78;;;14.40;67.54
44349;BME280;30068;50.986;4.564;2022-12-07T00:25:18;101977.69;;;14.32;68.01
44349;BME280;30068;50.986;4.564;2022-12-07T00:27:43;101978.31;;;14.57;66.91
44349;BME280;30068;50.986;4.564;2022-12-07T00:30:09;101975.03;;;14.43;67.28
44349;BME280;30068;50.986;4.564;2022-12-07T00:32:34;101973.94;;;14.45;67.64
44349;BME280;30068;50.986;4.564;2022-12-07T00:34:59;101969.06;;;14.39;67.48
44349;BME280;30068;50.986;4.564;2022-12-07T00:37:24;101967.06;;;14.41;67.73
44349;BME280;30068;50.986;4.564;2022-12-07T00:39:49;101975.88;;;14.43;67.33
44349;BME280;30068;50.986;4.564;2022-12-07T00:42:15;101972.22;;;14.44;67.50
44349;BME280;30068;50.986;4.564;2022-12-07T00:44:40;101974.16;;;14.42;67.33
44349;BME280;30068;50.986;4.564;2022-12-07T00:47:05;101974.44;;;14.39;67.50
44349;BME280;30068;50.986;4.564;2022-12-07T00:49:31;101971.75;;;14.39;67.59
44349;BME280;30068;50.986;4.564;2022-12-07T00:51:56;101971.09;;;14.24;67.97
44349;BME280;30068;50.986;4.564;2022-12-07T00:54:21;101970.50;;;14.32;67.66
44349;BME280;30068;50.986;4.564;2022-12-07T00:56:47;101973.91;;;14.23;67.95
44349;BME280;30068;50.986;4.564;2022-12-07T00:59:12;101955.97;;;14.23;68.02
44349;BME280;30068;50.986;4.564;2022-12-07T01:01:39;101967.06;;;14.19;68.14
44349;BME280;30068;50.986;4.564;2022-12-07T01:04:04;101964.88;;;14.24;67.95
44349;BME280;30068;50.986;4.564;2022-12-07T01:06:30;101968.50;;;14.34;67.55
44349;BME280;30068;50.986;4.564;2022-12-07T01:08:55;101963.28;;;14.33;67.67
44349;BME280;30068;50.986;4.564;2022-12-07T01:11:21;101970.47;;;14.21;68.01
44349;BME280;30068;50.986;4.564;2022-12-07T01:13:48;101973.66;;;14.15;68.09
44349;BME280;30068;50.986;4.564;2022-12-07T01:16:14;101969.28;;;14.25;67.75
44349;BME280;30068;50.986;4.564;2022-12-07T01:18:40;101960.34;;;14.13;68.08
44349;BME280;30068;50.986;4.564;2022-12-07T01:21:09;101968.66;;;14.10;68.36
44349;BME280;30068;50.986;4.564;2022-12-07T01:23:35;101968.53;;;14.23;68.00
44349;BME280;30068;50.986;4.564;2022-12-07T01:26:02;101968.75;;;14.20;67.90
44349;BME280;30068;50.986;4.564;2022-12-07T01:28:28;101972.56;;;14.29;67.77
44349;BME280;30068;50.986;4.564;2022-12-07T01:31:00;101977.06;;;14.17;67.99
44349;BME280;30068;50.986;4.564;2022-12-07T01:33:26;101973.91;;;14.12;68.05
44349;BME280;30068;50.986;4.564;2022-12-07T01:35:52;101969.25;;;14.03;68.45
44349;BME280;30068;50.986;4.564;2022-12-07T01:38:17;101985.63;;;14.11;68.16
44349;BME280;30068;50.986;4.564;2022-12-07T01:40:42;101985.13;;;14.17;67.80
44349;BME280;30068;50.986;4.564;2022-12-07T01:43:13;101981.47;;;14.18;67.73
44349;BME280;30068;50.986;4.564;2022-12-07T01:45:40;101987.78;;;14.06;68.40
44349;BME280;30068;50.986;4.564;2022-12-07T01:48:06;101979.63;;;14.07;68.29
44349;BME280;30068;50.986;4.564;2022-12-07T01:50:33;101974.38;;;14.06;68.38
44349;BME280;30068;50.986;4.564;2022-12-07T01:52:58;101979.13;;;14.02;68.31
44349;BME280;30068;50.986;4.564;2022-12-07T01:55:25;101980.09;;;14.01;68.52
44349;BME280;30068;50.986;4.564;2022-12-07T01:57:52;101970.22;;;14.02;68.47
44349;BME280;30068;50.986;4.564;2022-12-07T02:00:18;101971.19;;;14.01;68.57
44349;BME280;30068;50.986;4.564;2022-12-07T02:02:54;101968.78;;;14.09;68.25
44349;BME280;30068;50.986;4.564;2022-12-07T02:05:20;101968.41;;;14.02;68.09
44349;BME280;30068;50.986;4.564;2022-12-07T02:07:47;101965.81;;;14.01;68.62
44349;BME280;30068;50.986;4.564;2022-12-07T02:10:20;101963.63;;;14.06;68.38
44349;BME280;30068;50.986;4.564;2022-12-07T02:12:46;101959.97;;;13.96;68.87
44349;BME280;30068;50.986;4.564;2022-12-07T02:15:13;101961.81;;;14.06;68.28
44349;BME280;30068;50.986;4.564;2022-12-07T02:17:42;101962.44;;;13.99;68.44
44349;BME280;30068;50.986;4.564;2022-12-07T02:22:53;101968.78;;;13.98;68.71
44349;BME280;30068;50.986;4.564;2022-12-07T02:27:57;101973.75;;;14.02;68.62
44349;BME280;30068;50.986;4.564;2022-12-07T02:30:28;101969.75;;;13.97;68.72
44349;BME280;30068;50.986;4.564;2022-12-07T02:33:07;101961.31;;;13.90;69.07
44349;BME280;30068;50.986;4.564;2022-12-07T02:35:47;101962.66;;;14.07;68.25
44349;BME280;30068;50.986;4.564;2022-12-07T02:40:57;101962.16;;;14.02;68.67
44349;BME280;30068;50.986;4.564;2022-12-07T02:45:50;101960.94;;;13.95;68.63
44349;BME280;30068;50.986;4.564;2022-12-07T02:48:17;101958.63;;;13.90;69.16
44349;BME280;30068;50.986;4.564;2022-12-07T02:50:44;101960.84;;;13.96;68.48
44349;BME280;30068;50.986;4.564;2022-12-07T02:53:29;101954.38;;;13.99;68.48
44349;BME280;30068;50.986;4.564;2022-12-07T02:55:55;101951.69;;;13.99;68.79
44349;BME280;30068;50.986;4.564;2022-12-07T02:58:23;101956.06;;;14.00;68.40
44349;BME280;30068;50.986;4.564;2022-12-07T03:01:00;101949.25;;;13.96;68.76
44349;BME280;30068;50.986;4.564;2022-12-07T03:03:29;101954.84;;;13.93;68.83
44349;BME280;30068;50.986;4.564;2022-12-07T03:06:13;101957.03;;;13.88;68.76
44349;BME280;30068;50.986;4.564;2022-12-07T03:11:10;101949.47;;;13.81;68.99
44349;BME280;30068;50.986;4.564;2022-12-07T03:18:42;101937.78;;;13.82;69.26
44349;BME280;30068;50.986;4.564;2022-12-07T03:21:11;101943.03;;;13.84;69.13
44349;BME280;30068;50.986;4.564;2022-12-07T03:23:38;101938.84;;;13.80;69.16
44349;BME280;30068;50.986;4.564;2022-12-07T03:26:05;101943.63;;;13.88;68.94
44349;BME280;30068;50.986;4.564;2022-12-07T03:28:35;101946.41;;;13.86;69.17
44349;BME280;30068;50.986;4.564;2022-12-07T03:36:03;101935.47;;;13.78;69.35
44349;BME280;30068;50.986;4.564;2022-12-07T03:38:32;101930.31;;;13.75;69.45
44349;BME280;30068;50.986;4.564;2022-12-07T03:41:03;101931.91;;;13.77;69.38
44349;BME280;30068;50.986;4.564;2022-12-07T03:43:30;101933.09;;;13.73;69.65
44349;BME280;30068;50.986;4.564;2022-12-07T03:45:59;101931.78;;;13.79;69.05
44349;BME280;30068;50.986;4.564;2022-12-07T03:48:32;101933.38;;;13.70;69.71
44349;BME280;30068;50.986;4.564;2022-12-07T03:51:01;101919.97;;;13.70;69.60
44349;BME280;30068;50.986;4.564;2022-12-07T03:53:37;101920.34;;;13.77;69.43
44349;BME280;30068;50.986;4.564;2022-12-07T03:56:04;101933.22;;;13.72;69.63
44349;BME280;30068;50.986;4.564;2022-12-07T03:58:31;101922.75;;;13.80;69.19
44349;BME280;30068;50.986;4.564;2022-12-07T04:00:56;101925.81;;;13.75;69.60
44349;BME280;30068;50.986;4.564;2022-12-07T04:03:22;101924.34;;;13.71;69.61
44349;BME280;30068;50.986;4.564;2022-12-07T04:05:47;101918.84;;;13.73;69.35
44349;BME280;30068;50.986;4.564;2022-12-07T04:08:12;101916.41;;;13.70;69.51
44349;BME280;30068;50.986;4.564;2022-12-07T04:10:38;101923.34;;;13.72;69.44
44349;BME280;30068;50.986;4.564;2022-12-07T04:13:03;101923.59;;;13.69;69.17
44349;BME280;30068;50.986;4.564;2022-12-07T04:15:28;101928.84;;;13.71;69.45
44349;BME280;30068;50.986;4.564;2022-12-07T04:17:53;101930.06;;;13.67;69.57
44349;BME280;30068;50.986;4.564;2022-12-07T04:20:19;101933.00;;;13.75;69.44
44349;BME280;30068;50.986;4.564;2022-12-07T04:22:45;101925.81;;;13.75;69.20
44349;BME280;30068;50.986;4.564;2022-12-07T04:25:10;101931.41;;;13.72;69.36
44349;BME280;30068;50.986;4.564;2022-12-07T04:27:35;101934.56;;;13.66;69.60
44349;BME280;30068;50.986;4.564;2022-12-07T04:30:00;101925.91;;;13.63;69.63
44349;BME280;30068;50.986;4.564;2022-12-07T04:32:26;101932.63;;;13.68;69.44
44349;BME280;30068;50.986;4.564;2022-12-07T04:34:51;101929.84;;;13.70;69.49
44349;BME280;30068;50.986;4.564;2022-12-07T04:37:16;101931.88;;;13.66;69.52
44349;BME280;30068;50.986;4.564;2022-12-07T04:39:42;101925.81;;;13.64;69.58
44349;BME280;30068;50.986;4.564;2022-12-07T04:42:09;101922.13;;;13.65;69.49
44349;BME280;30068;50.986;4.564;2022-12-07T04:44:35;101913.69;;;13.59;69.63
44349;BME280;30068;50.986;4.564;2022-12-07T04:47:00;101923.34;;;13.61;69.56
44349;BME280;30068;50.986;4.564;2022-12-07T04:49:25;101930.66;;;13.59;69.66
44349;BME280;30068;50.986;4.564;2022-12-07T04:51:51;101928.72;;;13.61;69.56
44349;BME280;30068;50.986;4.564;2022-12-07T04:54:16;101926.19;;;13.71;69.26
44349;BME280;30068;50.986;4.564;2022-12-07T04:56:42;101929.19;;;13.66;69.21
44349;BME280;30068;50.986;4.564;2022-12-07T04:59:07;101933.81;;;13.53;69.69
44349;BME280;30068;50.986;4.564;2022-12-07T05:01:33;101928.47;;;13.64;69.38
44349;BME280;30068;50.986;4.564;2022-12-07T05:03:59;101930.41;;;13.62;69.21
44349;BME280;30068;50.986;4.564;2022-12-07T05:06:24;101927.00;;;13.60;69.28
44349;BME280;30068;50.986;4.564;2022-12-07T05:08:49;101926.41;;;13.68;69.24
44349;BME280;30068;50.986;4.564;2022-12-07T05:11:15;101923.47;;;13.60;69.43
44349;BME280;30068;50.986;4.564;2022-12-07T05:13:59;101918.22;;;13.58;69.56
44349;BME280;30068;50.986;4.564;2022-12-07T05:16:24;101930.38;;;13.51;69.55
44349;BME280;30068;50.986;4.564;2022-12-07T05:18:49;101923.34;;;13.50;69.68
44349;BME280;30068;50.986;4.564;2022-12-07T05:21:14;101931.13;;;13.53;69.86
44349;BME280;30068;50.986;4.564;2022-12-07T05:23:40;101925.75;;;13.53;69.46
44349;BME280;30068;50.986;4.564;2022-12-07T05:26:05;101920.06;;;13.58;69.49
44349;BME280;30068;50.986;4.564;2022-12-07T05:28:30;101925.81;;;13.64;69.34
44349;BME280;30068;50.986;4.564;2022-12-07T05:30:55;101920.78;;;13.60;69.38
44349;BME280;30068;50.986;4.564;2022-12-07T05:33:21;101931.38;;;13.50;69.58
44349;BME280;30068;50.986;4.564;2022-12-07T05:35:46;101934.06;;;13.50;69.79
44349;BME280;30068;50.986;4.564;2022-12-07T05:38:11;101925.50;;;13.45;69.78
44349;BME280;30068;50.986;4.564;2022-12-07T05:40:36;101924.56;;;13.57;69.50
44349;BME280;30068;50.986;4.564;2022-12-07T05:43:02;101925.66;;;13.55;69.37
44349;BME280;30068;50.986;4.564;2022-12-07T05:45:27;101923.81;;;13.55;69.43
44349;BME280;30068;50.986;4.564;2022-12-07T05:47:52;101926.00;;;13.50;69.54
44349;BME280;30068;50.986;4.564;2022-12-07T05:50:17;101918.69;;;13.52;69.51
44349;BME280;30068;50.986;4.564;2022-12-07T05:52:42;101921.50;;;13.51;69.73
44349;BME280;30068;50.986;4.564;2022-12-07T05:55:08;101915.53;;;13.58;69.38
44349;BME280;30068;50.986;4.564;2022-12-07T05:57:33;101913.69;;;13.59;69.31
44349;BME280;30068;50.986;4.564;2022-12-07T05:59:58;101916.25;;;13.49;69.78
44349;BME280;30068;50.986;4.564;2022-12-07T06:02:23;101920.41;;;13.53;69.59
44349;BME280;30068;50.986;4.564;2022-12-07T06:04:48;101919.53;;;13.53;69.64
44349;BME280;30068;50.986;4.564;2022-12-07T06:07:15;101911.75;;;13.50;69.72
44349;BME280;30068;50.986;4.564;2022-12-07T06:09:41;101908.44;;;13.46;69.77
44349;BME280;30068;50.986;4.564;2022-12-07T06:12:06;101909.94;;;13.50;69.50
44349;BME280;30068;50.986;4.564;2022-12-07T06:14:52;101906.22;;;13.40;70.23
44349;BME280;30068;50.986;4.564;2022-12-07T06:17:17;101911.22;;;13.44;69.99
44349;BME280;30068;50.986;4.564;2022-12-07T06:19:42;101906.22;;;13.40;70.04
44349;BME280;30068;50.986;4.564;2022-12-07T06:22:10;101906.97;;;13.42;70.16
44349;BME280;30068;50.986;4.564;2022-12-07T06:24:36;101905.75;;;13.46;69.71
44349;BME280;30068;50.986;4.564;2022-12-07T06:27:02;101913.31;;;13.52;69.69
44349;BME280;30068;50.986;4.564;2022-12-07T06:29:27;101907.34;;;13.49;69.87
44349;BME280;30068;50.986;4.564;2022-12-07T06:31:52;101914.44;;;13.50;69.60
44349;BME280;30068;50.986;4.564;2022-12-07T06:34:18;101918.09;;;13.49;69.83
44349;BME280;30068;50.986;4.564;2022-12-07T06:36:43;101913.41;;;13.39;70.20
44349;BME280;30068;50.986;4.564;2022-12-07T06:39:09;101915.50;;;13.47;69.94
44349;BME280;30068;50.986;4.564;2022-12-07T06:41:35;101920.88;;;13.47;69.83
44349;BME280;30068;50.986;4.564;2022-12-07T06:44:01;101932.06;;;13.41;69.84
44349;BME280;30068;50.986;4.564;2022-12-07T06:46:26;101926.72;;;13.41;69.94
44349;BME280;30068;50.986;4.564;2022-12-07T06:48:51;101924.19;;;13.51;69.48
44349;BME280;30068;50.986;4.564;2022-12-07T06:51:17;101931.84;;;13.44;69.94
44349;BME280;30068;50.986;4.564;2022-12-07T06:53:42;101936.19;;;13.34;70.26
44349;BME280;30068;50.986;4.564;2022-12-07T06:56:08;101942.69;;;13.42;69.89
44349;BME280;30068;50.986;4.564;2022-12-07T06:58:33;101938.28;;;13.41;70.24
44349;BME280;30068;50.986;4.564;2022-12-07T07:00:58;101948.63;;;13.35;70.21
44349;BME280;30068;50.986;4.564;2022-12-07T07:03:23;101948.38;;;13.38;70.26
44349;BME280;30068;50.986;4.564;2022-12-07T07:05:49;101943.88;;;13.38;70.13
44349;BME280;30068;50.986;4.564;2022-12-07T07:08:14;101936.81;;;13.37;70.24
44349;BME280;30068;50.986;4.564;2022-12-07T07:10:39;101935.72;;;13.40;70.07
44349;BME280;30068;50.986;4.564;2022-12-07T07:13:05;101929.75;;;13.36;70.18
44349;BME280;30068;50.986;4.564;2022-12-07T07:15:30;101921.13;;;13.44;70.00
44349;BME280;30068;50.986;4.564;2022-12-07T07:17:56;101925.69;;;13.31;70.60
44349;BME280;30068;50.986;4.564;2022-12-07T07:20:21;101924.50;;;13.35;70.52
44349;BME280;30068;50.986;4.564;2022-12-07T07:22:47;101930.63;;;13.37;70.43
44349;BME280;30068;50.986;4.564;2022-12-07T07:25:12;101926.69;;;13.30;70.53
44349;BME280;30068;50.986;4.564;2022-12-07T07:27:37;101922.03;;;13.32;70.49
44349;BME280;30068;50.986;4.564;2022-12-07T07:30:03;101920.84;;;13.36;70.37
44349;BME280;30068;50.986;4.564;2022-12-07T07:32:29;101927.06;;;13.36;70.25
44349;BME280;30068;50.986;4.564;2022-12-07T07:34:54;101924.63;;;13.33;70.50
44349;BME280;30068;50.986;4.564;2022-12-07T07:37:19;101935.13;;;13.36;70.22
44349;BME280;30068;50.986;4.564;2022-12-07T07:39:44;101923.53;;;13.36;70.28
44349;BME280;30068;50.986;4.564;2022-12-07T07:42:10;101931.31;;;13.39;70.24
44349;BME280;30068;50.986;4.564;2022-12-07T07:44:35;101931.81;;;13.33;70.24
44349;BME280;30068;50.986;4.564;2022-12-07T07:47:00;101939.34;;;13.28;70.43
44349;BME280;30068;50.986;4.564;2022-12-07T07:49:25;101932.28;;;13.27;70.72
44349;BME280;30068;50.986;4.564;2022-12-07T07:51:51;101933.72;;;13.31;70.46
44349;BME280;30068;50.986;4.564;2022-12-07T07:54:16;101928.16;;;13.34;70.14
44349;BME280;30068;50.986;4.564;2022-12-07T07:56:41;101938.41;;;13.40;69.89
44349;BME280;30068;50.986;4.564;2022-12-07T07:59:07;101937.91;;;13.35;70.03
44349;BME280;30068;50.986;4.564;2022-12-07T08:01:32;101933.97;;;13.28;70.35
44349;BME280;30068;50.986;4.564;2022-12-07T08:03:57;101937.28;;;13.31;70.17
44349;BME280;30068;50.986;4.564;2022-12-07T08:06:22;101940.59;;;13.35;69.88
44349;BME280;30068;50.986;4.564;2022-12-07T08:08:47;101944.72;;;13.39;69.93
44349;BME280;30068;50.986;4.564;2022-12-07T08:11:13;101949.38;;;13.37;69.77
44349;BME280;30068;50.986;4.564;2022-12-07T08:13:38;101945.88;;;13.24;70.35
44349;BME280;30068;50.986;4.564;2022-12-07T08:16:07;101945.66;;;13.27;70.16
44349;BME280;30068;50.986;4.564;2022-12-07T08:18:37;101949.00;;;13.30;70.03
44349;BME280;30068;50.986;4.564;2022-12-07T08:21:03;101952.06;;;13.37;69.81
44349;BME280;30068;50.986;4.564;2022-12-07T08:23:28;101950.81;;;13.30;70.27
44349;BME280;30068;50.986;4.564;2022-12-07T08:25:54;101943.97;;;13.26;70.32
44349;BME280;30068;50.986;4.564;2022-12-07T08:28:19;101950.69;;;13.31;70.39
44349;BME280;30068;50.986;4.564;2022-12-07T08:30:44;101956.19;;;13.30;70.27
44349;BME280;30068;50.986;4.564;2022-12-07T08:33:10;101958.56;;;13.22;70.30
44349;BME280;30068;50.986;4.564;2022-12-07T08:35:35;101960.41;;;13.21;70.51
44349;BME280;30068;50.986;4.564;2022-12-07T08:38:01;101958.47;;;13.23;70.24
44349;BME280;30068;50.986;4.564;2022-12-07T08:40:27;101966.84;;;13.19;70.57
44349;BME280;30068;50.986;4.564;2022-12-07T08:42:52;101964.66;;;13.24;70.67
44349;BME280;30068;50.986;4.564;2022-12-07T08:45:18;101963.09;;;13.21;70.58
44349;BME280;30068;50.986;4.564;2022-12-07T08:47:45;101965.41;;;13.26;70.44
44349;BME280;30068;50.986;4.564;2022-12-07T08:50:14;101967.69;;;13.19;70.60
44349;BME280;30068;50.986;4.564;2022-12-07T08:52:39;101965.28;;;13.62;69.28
44349;BME280;30068;50.986;4.564;2022-12-07T08:55:06;101967.03;;;13.39;70.00
44349;BME280;30068;50.986;4.564;2022-12-07T08:57:31;101964.53;;;13.25;70.71
44349;BME280;30068;50.986;4.564;2022-12-07T08:59:57;101976.91;;;11.54;63.50
44349;BME280;30068;50.986;4.564;2022-12-07T09:02:23;101972.00;;;11.60;64.64
44349;BME280;30068;50.986;4.564;2022-12-07T09:04:48;101967.84;;;12.45;64.55
44349;BME280;30068;50.986;4.564;2022-12-07T09:07:13;101967.84;;;12.81;64.14
44349;BME280;30068;50.986;4.564;2022-12-07T09:09:38;101967.50;;;13.10;64.15
44349;BME280;30068;50.986;4.564;2022-12-07T09:12:03;101965.66;;;12.86;65.32
44349;BME280;30068;50.986;4.564;2022-12-07T09:14:29;101961.28;;;12.85;66.04
44349;BME280;30068;50.986;4.564;2022-12-07T09:16:54;101965.72;;;12.97;66.09
44349;BME280;30068;50.986;4.564;2022-12-07T09:19:19;101955.78;;;13.11;66.18
44349;BME280;30068;50.986;4.564;2022-12-07T09:21:45;101957.22;;;13.03;66.79
44349;BME280;30068;50.986;4.564;2022-12-07T09:24:11;101955.91;;;13.22;66.20
44349;BME280;30068;50.986;4.564;2022-12-07T09:26:37;101953.59;;;13.28;66.62
44349;BME280;30068;50.986;4.564;2022-12-07T09:29:04;101956.78;;;13.10;67.50
44349;BME280;30068;50.986;4.564;2022-12-07T09:31:29;101951.34;;;12.98;68.09
44349;BME280;30068;50.986;4.564;2022-12-07T09:33:58;101956.50;;;13.01;68.12
44349;BME280;30068;50.986;4.564;2022-12-07T09:36:24;101953.06;;;12.99;68.52
44349;BME280;30068;50.986;4.564;2022-12-07T09:38:49;101953.94;;;13.00;68.78
44349;BME280;30068;50.986;4.564;2022-12-07T09:41:14;101947.97;;;12.96;68.70
44349;BME280;30068;50.986;4.564;2022-12-07T09:43:40;101943.69;;;12.94;69.18
44349;BME280;30068;50.986;4.564;2022-12-07T09:46:08;101942.59;;;12.96;69.36
44349;BME280;30068;50.986;4.564;2022-12-07T09:48:36;101941.00;;;12.94;69.35
44349;BME280;30068;50.986;4.564;2022-12-07T09:51:02;101943.09;;;13.01;69.44
44349;BME280;30068;50.986;4.564;2022-12-07T09:53:36;101948.75;;;13.10;69.05
44349;BME280;30068;50.986;4.564;2022-12-07T09:56:02;101943.09;;;13.01;69.29
44349;BME280;30068;50.986;4.564;2022-12-07T09:58:28;101940.19;;;13.04;69.45
44349;BME280;30068;50.986;4.564;2022-12-07T10:01:05;101945.16;;;12.98;69.85
44349;BME280;30068;50.986;4.564;2022-12-07T10:03:36;101933.34;;;13.00;69.67
44349;BME280;30068;50.986;4.564;2022-12-07T10:06:02;101940.31;;;13.03;69.70
44349;BME280;30068;50.986;4.564;2022-12-07T10:08:27;101936.03;;;13.00;70.00
44349;BME280;30068;50.986;4.564;2022-12-07T10:10:53;101934.69;;;13.19;69.32
44349;BME280;30068;50.986;4.564;2022-12-07T10:16:00;101925.59;;;13.32;68.77
44349;BME280;30068;50.986;4.564;2022-12-07T10:23:28;101917.13;;;13.50;68.38
44349;BME280;30068;50.986;4.564;2022-12-07T10:25:54;101898.47;;;13.48;68.55
44349;BME280;30068;50.986;4.564;2022-12-07T10:28:20;101913.84;;;13.57;68.69
44349;BME280;30068;50.986;4.564;2022-12-07T10:30:57;101919.22;;;13.57;68.67
44349;BME280;30068;50.986;4.564;2022-12-07T10:33:27;101915.31;;;13.61;68.77
44349;BME280;30068;50.986;4.564;2022-12-07T10:35:54;101923.84;;;13.66;68.54
44349;BME280;30068;50.986;4.564;2022-12-07T10:38:19;101919.00;;;13.71;68.62
44349;BME280;30068;50.986;4.564;2022-12-07T10:40:45;101911.06;;;13.70;68.76
44349;BME280;30068;50.986;4.564;2022-12-07T10:46:05;101912.03;;;13.69;69.09
44349;BME280;30068;50.986;4.564;2022-12-07T10:51:21;101912.28;;;13.77;68.85
44349;BME280;30068;50.986;4.564;2022-12-07T11:06:35;101884.81;;;12.81;65.55
44349;BME280;30068;50.986;4.564;2022-12-07T11:09:06;101882.94;;;13.05;65.30
44349;BME280;30068;50.986;4.564;2022-12-07T11:11:46;101882.56;;;13.23;65.06
44349;BME280;30068;50.986;4.564;2022-12-07T11:14:28;101874.75;;;13.31;64.76
44349;BME280;30068;50.986;4.564;2022-12-07T11:17:13;101873.31;;;13.38;65.14
44349;BME280;30068;50.986;4.564;2022-12-07T11:35:24;101848.38;;;13.60;66.77
44349;BME280;30068;50.986;4.564;2022-12-07T11:37:57;101854.09;;;13.55;67.06
44349;BME280;30068;50.986;4.564;2022-12-07T11:42:56;101852.66;;;13.62;67.02
44349;BME280;30068;50.986;4.564;2022-12-07T11:45:26;101852.66;;;13.62;66.99
44349;BME280;30068;50.986;4.564;2022-12-07T11:47:54;101843.88;;;13.60;67.30
44349;BME280;30068;50.986;4.564;2022-12-07T11:52:51;101836.44;;;13.64;67.73
44349;BME280;30068;50.986;4.564;2022-12-07T11:58:05;101829.47;;;13.61;67.62
44349;BME280;30068;50.986;4.564;2022-12-07T12:00:36;101823.38;;;13.59;67.43
44349;BME280;30068;50.986;4.564;2022-12-07T12:03:03;101824.00;;;13.63;67.82
44349;BME280;30068;50.986;4.564;2022-12-07T12:05:32;101820.34;;;13.64;67.70
44349;BME280;30068;50.986;4.564;2022-12-07T12:08:21;101812.41;;;13.62;67.58
44349;BME280;30068;50.986;4.564;2022-12-07T12:13:30;101805.56;;;13.58;67.92
44349;BME280;30068;50.986;4.564;2022-12-07T12:16:18;101811.19;;;13.66;68.06
44349;BME280;30068;50.986;4.564;2022-12-07T12:19:09;101802.53;;;13.74;67.49
44349;BME280;30068;50.986;4.564;2022-12-07T12:21:40;101811.22;;;13.77;67.25
44349;BME280;30068;50.986;4.564;2022-12-07T12:24:10;101808.16;;;13.82;67.46
44349;BME280;30068;50.986;4.564;2022-12-07T12:26:37;101799.00;;;13.73;67.81
44349;BME280;30068;50.986;4.564;2022-12-07T12:29:05;101800.31;;;13.79;67.52
44349;BME280;30068;50.986;4.564;2022-12-07T12:31:32;101794.63;;;13.83;67.34
44349;BME280;30068;50.986;4.564;2022-12-07T12:34:00;101800.22;;;13.47;64.03
44349;BME280;30068;50.986;4.564;2022-12-07T12:44:00;101792.94;;;12.33;65.17
44349;BME280;30068;50.986;4.564;2022-12-07T12:48:54;101779.50;;;12.22;64.08
44349;BME280;30068;50.986;4.564;2022-12-07T12:51:36;101785.19;;;11.81;64.61
44349;BME280;30068;50.986;4.564;2022-12-07T12:54:10;101784.69;;;12.12;64.00
44349;BME280;30068;50.986;4.564;2022-12-07T12:59:31;101788.53;;;12.08;65.07
44349;BME280;30068;50.986;4.564;2022-12-07T13:02:07;101788.50;;;12.21;62.79
44349;BME280;30068;50.986;4.564;2022-12-07T13:04:37;101771.72;;;13.57;60.45
44349;BME280;30068;50.986;4.564;2022-12-07T13:07:03;101759.69;;;14.49;58.47
44349;BME280;30068;50.986;4.564;2022-12-07T13:09:29;101760.00;;;14.87;58.26
44349;BME280;30068;50.986;4.564;2022-12-07T13:12:11;101752.00;;;15.27;57.39
44349;BME280;30068;50.986;4.564;2022-12-07T13:27:37;101747.44;;;15.98;58.36
44349;BME280;30068;50.986;4.564;2022-12-07T13:30:14;101745.44;;;15.91;59.05
44349;BME280;30068;50.986;4.564;2022-12-07T13:32:40;101742.19;;;15.97;58.91
44349;BME280;30068;50.986;4.564;2022-12-07T13:37:50;101740.91;;;15.91;59.67
44349;BME280;30068;50.986;4.564;2022-12-07T13:40:19;101731.69;;;15.84;59.75
44349;BME280;30068;50.986;4.564;2022-12-07T13:42:45;101729.31;;;16.00;59.50
44349;BME280;30068;50.986;4.564;2022-12-07T13:45:21;101720.25;;;16.11;59.63
44349;BME280;30068;50.986;4.564;2022-12-07T13:47:48;101726.50;;;16.21;59.28
44349;BME280;30068;50.986;4.564;2022-12-07T13:50:22;101724.66;;;16.31;59.18
44349;BME280;30068;50.986;4.564;2022-12-07T13:52:48;101722.41;;;16.27;59.37
44349;BME280;30068;50.986;4.564;2022-12-07T13:55:14;101713.88;;;16.31;59.49
44349;BME280;30068;50.986;4.564;2022-12-07T13:57:40;101718.59;;;16.29;59.83
44349;BME280;30068;50.986;4.564;2022-12-07T14:00:13;101718.00;;;16.16;60.02
44349;BME280;30068;50.986;4.564;2022-12-07T14:02:54;101719.13;;;16.33;59.71
44349;BME280;30068;50.986;4.564;2022-12-07T14:05:24;101721.84;;;16.42;59.45
44349;BME280;30068;50.986;4.564;2022-12-07T14:07:56;101725.63;;;15.82;57.61
44349;BME280;30068;50.986;4.564;2022-12-07T14:10:26;101734.97;;;15.17;58.24
44349;BME280;30068;50.986;4.564;2022-12-07T14:12:52;101733.22;;;15.77;58.58
44349;BME280;30068;50.986;4.564;2022-12-07T14:15:20;101731.84;;;15.92;58.77
44349;BME280;30068;50.986;4.564;2022-12-07T14:17:49;101716.28;;;16.05;58.79
44349;BME280;30068;50.986;4.564;2022-12-07T14:23:23;101702.41;;;16.00;59.76
44349;BME280;30068;50.986;4.564;2022-12-07T14:25:50;101704.84;;;16.03;60.20
44349;BME280;30068;50.986;4.564;2022-12-07T14:28:29;101698.88;;;16.19;59.83
44349;BME280;30068;50.986;4.564;2022-12-07T14:30:55;101695.63;;;16.15;60.06
44349;BME280;30068;50.986;4.564;2022-12-07T14:33:20;101695.31;;;16.18;60.20
44349;BME280;30068;50.986;4.564;2022-12-07T14:35:46;101691.94;;;16.16;59.93
44349;BME280;30068;50.986;4.564;2022-12-07T14:38:12;101690.66;;;16.20;59.97